Time;durP1;ratioP1;P1;durP2;ratioP2;P2;SDS_P1;SDS_P2;PMS_P1;PMS_P2;Temp;Humidity;BMP_temperature;BMP_pressure;BME280_temperature;BME280_humidity;BME280_pressure;Samples;Min_cycle;Max_cycle;Signal;HPM_P1;HPM_P2
2022/11/14 00:00:07;;;;;;;3.03;2.30;;;1.80;99.90;;;;;;4215776;28;20198;-68
2022/11/14 00:02:08;;;;;;;3.33;2.30;;;1.80;99.90;;;;;;4214961;28;20429;-68
2022/11/14 00:04:08;;;;;;;3.23;2.30;;;1.80;99.90;;;;;;4215749;28;20945;-68
2022/11/14 00:06:11;;;;;;;3.50;2.60;;;1.80;99.90;;;;;;4215314;28;20711;-69
2022/11/14 00:08:21;;;;;;;3.40;2.40;;;1.70;99.90;;;;;;4215453;28;20214;-68
2022/11/14 00:10:22;;;;;;;7.37;3.00;;;1.60;99.90;;;;;;4215153;28;20440;-69
2022/11/14 00:12:23;;;;;;;11.97;3.50;;;1.60;99.90;;;;;;4216852;28;20497;-69
2022/11/14 00:14:24;;;;;;;24.77;5.67;;;1.40;99.90;;;;;;4232076;28;20428;-68
2022/11/14 00:16:24;;;;;;;7.63;3.13;;;1.40;99.90;;;;;;4232211;28;20668;-68
2022/11/14 00:18:25;;;;;;;19.27;3.70;;;1.40;99.90;;;;;;4232188;28;20183;-69
2022/11/14 00:20:26;;;;;;;4.23;3.00;;;1.50;99.90;;;;;;4231587;28;20189;-67
2022/11/14 00:22:26;;;;;;;14.13;3.90;;;1.60;99.90;;;;;;4232301;28;20227;-69
2022/11/14 00:24:27;;;;;;;3.73;2.70;;;1.60;99.90;;;;;;4235858;28;20202;-66
2022/11/14 00:26:28;;;;;;;6.77;3.10;;;1.70;99.90;;;;;;4233488;28;20186;-67
2022/11/14 00:28:28;;;;;;;7.17;3.03;;;1.70;99.90;;;;;;4232258;28;20216;-67
2022/11/14 00:30:29;;;;;;;5.63;2.37;;;1.70;99.90;;;;;;4231767;28;20209;-67
2022/11/14 00:32:30;;;;;;;4.23;2.73;;;1.70;99.90;;;;;;4232150;28;20662;-67
2022/11/14 00:34:31;;;;;;;3.27;2.60;;;1.80;99.90;;;;;;4232005;28;20223;-67
2022/11/14 00:36:32;;;;;;;3.07;2.30;;;1.80;99.90;;;;;;4231782;28;20423;-67
2022/11/14 00:38:32;;;;;;;2.87;2.00;;;1.70;99.90;;;;;;4232443;28;20175;-66
2022/11/14 00:40:33;;;;;;;3.70;2.80;;;1.80;99.90;;;;;;4231617;28;20198;-67
2022/11/14 00:42:34;;;;;;;2.80;2.27;;;1.70;99.90;;;;;;4231872;28;20593;-67
2022/11/14 00:44:34;;;;;;;2.90;2.03;;;1.70;99.90;;;;;;4231776;28;20558;-66
2022/11/14 00:46:35;;;;;;;2.87;2.07;;;1.80;99.90;;;;;;4230496;28;20182;-66
2022/11/14 00:48:36;;;;;;;2.87;2.40;;;1.80;99.90;;;;;;4231875;28;20182;-67
2022/11/14 00:50:37;;;;;;;2.93;2.37;;;1.70;99.90;;;;;;4231205;28;20591;-66
2022/11/14 00:52:37;;;;;;;3.27;2.40;;;1.60;99.90;;;;;;4231566;28;20182;-66
2022/11/14 00:54:38;;;;;;;2.70;2.13;;;1.60;99.90;;;;;;4231794;28;20198;-67
2022/11/14 00:56:38;;;;;;;2.50;1.83;;;1.70;99.90;;;;;;4231748;28;20206;-67
2022/11/14 00:58:39;;;;;;;4.73;2.20;;;1.50;99.90;;;;;;4231263;28;20181;-66
2022/11/14 01:00:40;;;;;;;2.70;2.23;;;1.50;99.90;;;;;;4230754;28;20691;-67
2022/11/14 01:02:41;;;;;;;3.27;2.50;;;1.50;99.90;;;;;;4231476;28;20265;-67
2022/11/14 01:04:41;;;;;;;2.87;2.47;;;1.50;99.90;;;;;;4231459;28;20186;-67
2022/11/14 01:06:42;;;;;;;2.90;2.33;;;1.40;99.90;;;;;;4230754;28;20314;-67
2022/11/14 01:08:43;;;;;;;4.13;2.53;;;1.40;99.90;;;;;;4229666;28;20178;-67
2022/11/14 01:10:47;;;;;;;2.80;2.50;;;1.50;99.90;;;;;;4230314;28;20199;-67
2022/11/14 01:12:48;;;;;;;3.20;2.53;;;1.50;99.90;;;;;;4231272;28;20530;-66
2022/11/14 01:14:49;;;;;;;3.97;2.47;;;1.50;99.90;;;;;;4231593;28;21194;-67
2022/11/14 01:16:49;;;;;;;3.60;2.70;;;1.60;99.90;;;;;;4231311;28;20698;-66
2022/11/14 01:18:50;;;;;;;4.03;2.63;;;1.60;99.90;;;;;;4231230;28;20215;-67
2022/11/14 01:20:51;;;;;;;4.50;3.00;;;1.60;99.90;;;;;;4230690;28;20195;-67
2022/11/14 01:22:51;;;;;;;3.70;2.70;;;1.70;99.90;;;;;;4231152;28;20666;-67
2022/11/14 01:24:54;;;;;;;3.87;2.60;;;1.60;99.90;;;;;;4230890;28;20254;-67
2022/11/14 01:26:55;;;;;;;6.00;2.80;;;1.60;99.90;;;;;;4231552;28;20579;-67
2022/11/14 01:28:56;;;;;;;6.10;3.40;;;1.60;99.90;;;;;;4231155;28;20451;-69
2022/11/14 01:31:12;;;;;;;8.30;3.57;;;1.60;99.90;;;;;;4231158;28;20439;-67
2022/11/14 01:33:13;;;;;;;10.20;3.50;;;1.60;99.90;;;;;;4229740;28;20174;-67
2022/11/14 01:35:14;;;;;;;8.40;2.97;;;1.50;99.90;;;;;;4231227;28;20809;-67
2022/11/14 01:37:15;;;;;;;5.87;2.87;;;1.50;99.90;;;;;;4231412;28;20210;-67
2022/11/14 01:39:15;;;;;;;7.80;3.23;;;1.40;99.90;;;;;;4231013;28;20261;-67
2022/11/14 01:41:16;;;;;;;5.57;3.20;;;1.40;99.90;;;;;;4228986;28;20244;-66
2022/11/14 01:43:17;;;;;;;7.10;3.83;;;1.30;99.90;;;;;;4229707;28;20626;-67
2022/11/14 01:45:46;;;;;;;4.17;3.07;;;1.20;99.90;;;;;;4231063;28;20186;-67
2022/11/14 01:47:46;;;;;;;5.00;3.07;;;1.10;99.90;;;;;;4246715;27;20192;-67
2022/11/14 01:49:52;;;;;;;2.80;2.30;;;1.20;99.90;;;;;;4224327;28;20453;-67
2022/11/14 01:52:04;;;;;;;3.37;2.40;;;1.30;99.90;;;;;;4213406;28;20945;-68
2022/11/14 01:54:09;;;;;;;3.50;2.40;;;1.30;99.90;;;;;;4214012;28;20417;-67
2022/11/14 01:56:14;;;;;;;2.83;2.20;;;1.30;99.90;;;;;;4212533;28;20868;-67
2022/11/14 01:58:16;;;;;;;3.47;2.47;;;1.30;99.90;;;;;;4212345;28;20554;-68
2022/11/14 02:00:16;;;;;;;3.43;2.53;;;1.40;99.90;;;;;;4212986;28;20440;-66
2022/11/14 02:02:24;;;;;;;3.63;2.40;;;1.30;99.90;;;;;;4229130;28;20420;-70
2022/11/14 02:04:33;;;;;;;3.13;2.43;;;1.30;99.90;;;;;;4213684;28;20279;-66
2022/11/14 02:06:35;;;;;;;3.20;2.43;;;1.20;99.90;;;;;;4217975;28;21238;-67
2022/11/14 02:08:36;;;;;;;3.53;2.43;;;1.30;99.90;;;;;;4230520;28;20944;-68
2022/11/14 02:10:36;;;;;;;4.20;2.80;;;1.40;99.90;;;;;;4228478;28;20476;-67
2022/11/14 02:12:37;;;;;;;5.67;3.07;;;1.40;99.90;;;;;;4230393;28;20189;-67
2022/11/14 02:14:40;;;;;;;7.93;3.20;;;1.30;99.90;;;;;;4230388;28;20171;-67
2022/11/14 02:16:42;;;;;;;6.63;3.27;;;1.30;99.90;;;;;;4230279;28;20259;-67
2022/11/14 02:18:42;;;;;;;5.17;3.03;;;1.20;99.90;;;;;;4230438;28;20408;-67
2022/11/14 02:20:43;;;;;;;5.40;3.00;;;1.20;99.90;;;;;;4229374;28;20515;-67
2022/11/14 02:22:44;;;;;;;12.20;4.13;;;1.20;99.90;;;;;;4230229;28;20167;-67
2022/11/14 02:24:45;;;;;;;5.07;3.00;;;1.10;99.90;;;;;;4232574;28;20217;-68
2022/11/14 02:26:45;;;;;;;10.17;4.40;;;1.00;99.90;;;;;;4238737;28;20179;-68
2022/11/14 02:28:47;;;;;;;9.03;3.70;;;1.00;99.90;;;;;;4232711;28;20420;-70
2022/11/14 02:30:48;;;;;;;7.17;4.57;;;0.90;99.90;;;;;;4229858;28;20198;-67
2022/11/14 02:32:49;;;;;;;5.43;3.10;;;0.70;99.90;;;;;;4230428;28;20513;-67
2022/11/14 02:34:50;;;;;;;4.47;2.87;;;0.80;99.90;;;;;;4230328;28;20244;-68
2022/11/14 02:36:51;;;;;;;4.40;2.93;;;0.90;99.90;;;;;;4229064;28;20959;-68
2022/11/14 02:38:51;;;;;;;45.93;6.20;;;0.90;99.90;;;;;;4230271;28;20170;-67
2022/11/14 02:40:52;;;;;;;49.67;5.37;;;1.00;99.90;;;;;;4229817;28;20545;-68
2022/11/14 02:42:52;;;;;;;44.47;6.80;;;1.00;99.90;;;;;;4229844;28;20229;-68
2022/11/14 02:44:53;;;;;;;11.27;5.27;;;1.10;99.90;;;;;;4230315;28;20224;-67
2022/11/14 02:46:54;;;;;;;41.90;10.53;;;1.20;99.90;;;;;;4230151;28;20179;-67
2022/11/14 02:48:55;;;;;;;53.77;11.60;;;1.30;99.90;;;;;;4228266;28;20830;-68
2022/11/14 02:50:55;;;;;;;64.63;10.90;;;1.50;99.90;;;;;;4229063;28;20569;-67
2022/11/14 02:52:56;;;;;;;123.87;15.00;;;1.60;99.90;;;;;;4229586;28;20180;-67
2022/11/14 02:54:57;;;;;;;94.43;14.03;;;1.60;99.90;;;;;;4229703;28;20279;-68
2022/11/14 02:56:57;;;;;;;46.10;10.37;;;1.70;99.90;;;;;;4229789;28;20298;-67
2022/11/14 02:58:58;;;;;;;80.13;15.83;;;1.90;99.90;;;;;;4229540;28;20376;-68
2022/11/14 03:00:59;;;;;;;39.20;8.53;;;1.90;99.90;;;;;;4229644;28;20193;-68
2022/11/14 03:02:59;;;;;;;106.17;13.67;;;2.00;99.90;;;;;;4229825;28;20652;-67
2022/11/14 03:05:00;;;;;;;59.83;11.10;;;2.00;99.90;;;;;;4229368;28;20177;-67
2022/11/14 03:07:01;;;;;;;163.83;18.13;;;2.00;99.90;;;;;;4229540;28;20178;-67
2022/11/14 03:09:02;;;;;;;60.10;9.93;;;2.20;99.90;;;;;;4229348;28;20243;-68
2022/11/14 03:11:07;;;;;;;25.60;8.13;;;2.20;99.90;;;;;;4227651;28;20206;-68
2022/11/14 03:13:08;;;;;;;76.77;13.70;;;2.40;99.90;;;;;;4228135;28;20194;-67
2022/11/14 03:15:09;;;;;;;43.00;10.40;;;2.50;99.90;;;;;;4229198;28;20427;-67
2022/11/14 03:17:10;;;;;;;64.27;10.53;;;2.70;99.90;;;;;;4229006;28;20235;-68
2022/11/14 03:19:10;;;;;;;56.53;9.13;;;2.70;99.90;;;;;;4227795;28;20840;-67
2022/11/14 03:21:20;;;;;;;20.90;6.90;;;2.70;99.90;;;;;;4228727;28;20190;-67
2022/11/14 03:23:21;;;;;;;17.23;6.77;;;2.70;99.90;;;;;;4228160;28;20159;-67
2022/11/14 03:25:22;;;;;;;9.50;5.80;;;2.90;99.90;;;;;;4229385;28;20405;-68
2022/11/14 03:27:22;;;;;;;10.47;5.90;;;2.90;99.90;;;;;;4221347;28;20666;-66
2022/11/14 03:29:23;;;;;;;10.67;6.10;;;2.90;99.90;;;;;;4223546;28;20647;-67
2022/11/14 03:31:24;;;;;;;10.33;5.17;;;2.80;99.90;;;;;;4226283;28;20186;-67
2022/11/14 03:33:24;;;;;;;9.07;5.33;;;2.80;99.90;;;;;;4229319;28;20649;-66
2022/11/14 03:35:25;;;;;;;9.70;5.43;;;2.80;99.90;;;;;;4229260;28;20208;-67
2022/11/14 03:37:26;;;;;;;10.97;6.07;;;2.70;99.90;;;;;;4227612;28;20745;-68
2022/11/14 03:39:27;;;;;;;8.77;5.17;;;2.60;99.90;;;;;;4227825;28;20194;-66
2022/11/14 03:41:27;;;;;;;12.87;6.33;;;2.60;99.90;;;;;;4228565;28;20633;-67
2022/11/14 03:43:33;;;;;;;7.90;4.80;;;2.60;99.90;;;;;;4227661;28;20188;-67
2022/11/14 03:45:36;;;;;;;7.90;4.53;;;2.50;99.90;;;;;;4228233;28;20190;-67
2022/11/14 03:47:37;;;;;;;7.13;4.63;;;2.50;99.90;;;;;;4226803;28;20795;-66
2022/11/14 03:49:37;;;;;;;7.07;4.00;;;2.50;99.90;;;;;;4229159;28;20556;-67
2022/11/14 03:51:38;;;;;;;7.07;4.13;;;2.50;99.90;;;;;;4228308;28;20179;-67
2022/11/14 03:53:39;;;;;;;8.57;5.03;;;2.40;99.90;;;;;;4229239;28;20188;-68
2022/11/14 03:55:42;;;;;;;6.70;4.30;;;2.40;99.90;;;;;;4228967;28;20233;-67
2022/11/14 03:57:43;;;;;;;6.50;4.43;;;2.30;99.90;;;;;;4227545;28;20209;-68
2022/11/14 03:59:43;;;;;;;11.83;5.87;;;2.10;99.90;;;;;;4228973;28;20428;-67
2022/11/14 04:01:44;;;;;;;8.63;4.60;;;2.10;99.90;;;;;;4228536;28;20185;-67
2022/11/14 04:03:45;;;;;;;12.37;5.60;;;2.00;99.90;;;;;;4229223;28;20186;-67
2022/11/14 04:05:45;;;;;;;9.57;5.53;;;2.00;99.90;;;;;;4228936;28;20183;-67
2022/11/14 04:07:46;;;;;;;9.10;5.10;;;2.20;99.90;;;;;;4228894;28;20259;-67
2022/11/14 04:09:47;;;;;;;7.80;4.90;;;2.20;99.90;;;;;;4229301;28;20243;-70
2022/11/14 04:11:47;;;;;;;8.40;5.33;;;2.40;99.90;;;;;;4228529;28;20188;-66
2022/11/14 04:13:48;;;;;;;9.03;5.57;;;2.50;99.90;;;;;;4229123;28;20183;-68
2022/11/14 04:15:58;;;;;;;12.27;6.47;;;2.50;99.90;;;;;;4227710;28;20180;-68
2022/11/14 04:17:59;;;;;;;10.20;5.70;;;2.60;99.90;;;;;;4227637;28;20256;-68
2022/11/14 04:20:00;;;;;;;14.50;7.03;;;2.70;99.90;;;;;;4228548;28;20442;-67
2022/11/14 04:22:01;;;;;;;99.90;10.23;;;2.70;99.90;;;;;;4228381;28;20227;-67
2022/11/14 04:24:01;;;;;;;17.37;8.10;;;2.80;99.90;;;;;;4228720;28;20288;-70
2022/11/14 04:26:02;;;;;;;65.33;10.47;;;2.90;99.90;;;;;;4232217;28;20171;-70
2022/11/14 04:28:03;;;;;;;52.70;10.40;;;3.00;99.90;;;;;;4236744;28;20204;-68
2022/11/14 04:30:05;;;;;;;19.77;8.97;;;3.00;99.90;;;;;;4230464;28;20215;-67
2022/11/14 04:32:06;;;;;;;68.73;14.53;;;3.00;99.90;;;;;;4228502;28;20664;-67
2022/11/14 04:34:06;;;;;;;49.07;13.40;;;3.10;99.90;;;;;;4228907;28;20431;-68
2022/11/14 04:36:07;;;;;;;37.80;11.23;;;3.20;99.90;;;;;;4229012;28;20271;-68
2022/11/14 04:38:09;;;;;;;88.30;13.80;;;3.20;99.90;;;;;;4228953;28;20675;-67
2022/11/14 04:40:10;;;;;;;51.07;13.27;;;3.30;99.90;;;;;;4228791;28;20196;-67
2022/11/14 04:42:11;;;;;;;42.23;12.50;;;3.30;99.90;;;;;;4229619;28;21007;-67
2022/11/14 04:44:11;;;;;;;48.50;11.63;;;3.10;99.90;;;;;;4232037;27;20414;-67
2022/11/14 04:46:12;;;;;;;30.57;9.20;;;3.00;99.90;;;;;;4232153;28;20178;-67
2022/11/14 04:48:13;;;;;;;53.83;13.47;;;2.90;99.90;;;;;;4232002;28;20176;-67
2022/11/14 04:50:14;;;;;;;39.30;12.10;;;3.00;99.90;;;;;;4231292;28;20288;-67
2022/11/14 04:52:14;;;;;;;35.80;11.77;;;3.10;99.90;;;;;;4232061;27;20181;-67
2022/11/14 04:54:15;;;;;;;20.03;9.10;;;3.10;99.90;;;;;;4232058;28;20183;-67
2022/11/14 04:56:16;;;;;;;37.37;11.53;;;3.10;99.90;;;;;;4231793;28;20185;-67
2022/11/14 04:58:16;;;;;;;17.17;8.70;;;3.20;99.90;;;;;;4230294;28;20739;-67
2022/11/14 05:00:17;;;;;;;21.07;10.17;;;3.30;99.90;;;;;;4230790;28;20226;-69
2022/11/14 05:02:18;;;;;;;23.23;9.83;;;3.40;99.90;;;;;;4230337;28;20663;-68
2022/11/14 05:04:19;;;;;;;18.87;8.97;;;3.40;99.90;;;;;;4231517;28;20648;-68
2022/11/14 05:06:19;;;;;;;22.33;9.97;;;3.40;99.90;;;;;;4231525;28;20173;-69
2022/11/14 05:08:20;;;;;;;20.60;11.20;;;3.40;99.90;;;;;;4231611;28;20276;-67
2022/11/14 05:10:21;;;;;;;18.70;11.10;;;3.30;99.90;;;;;;4230864;28;20202;-67
2022/11/14 05:12:21;;;;;;;20.03;8.77;;;3.40;99.90;;;;;;4231480;28;20185;-67
2022/11/14 05:14:22;;;;;;;21.37;15.57;;;3.40;99.90;;;;;;4231395;28;20185;-67
2022/11/14 05:16:24;;;;;;;16.40;10.23;;;3.30;99.90;;;;;;4231599;28;20651;-66
2022/11/14 05:18:24;;;;;;;12.93;7.80;;;3.40;99.90;;;;;;4231414;28;20282;-67
2022/11/14 05:20:25;;;;;;;13.97;7.43;;;3.40;99.90;;;;;;4230887;28;20904;-67
2022/11/14 05:22:26;;;;;;;13.33;8.00;;;3.40;99.90;;;;;;4229759;28;20187;-67
2022/11/14 05:24:27;;;;;;;16.17;8.43;;;3.40;99.90;;;;;;4231259;28;20189;-68
2022/11/14 05:26:28;;;;;;;15.57;8.63;;;3.30;99.90;;;;;;4231275;28;20553;-68
2022/11/14 05:28:29;;;;;;;14.87;7.50;;;3.30;99.90;;;;;;4231304;28;20411;-68
2022/11/14 05:30:30;;;;;;;15.43;7.97;;;3.40;99.90;;;;;;4230714;28;20196;-67
2022/11/14 05:32:30;;;;;;;13.53;8.17;;;3.30;99.90;;;;;;4231241;28;20575;-67
2022/11/14 05:34:31;;;;;;;17.97;10.57;;;3.30;99.90;;;;;;4231353;28;20235;-68
2022/11/14 05:36:31;;;;;;;16.43;9.10;;;3.30;99.90;;;;;;4231055;28;20184;-67
2022/11/14 05:38:33;;;;;;;15.53;9.33;;;3.20;99.90;;;;;;4232662;27;20246;-68
2022/11/14 05:40:33;;;;;;;20.17;10.30;;;3.30;99.90;;;;;;4235471;27;20609;-67
2022/11/14 05:42:34;;;;;;;24.47;11.13;;;3.40;99.90;;;;;;4239686;27;20501;-68
2022/11/14 05:44:34;;;;;;;26.83;10.57;;;3.40;99.90;;;;;;4217061;27;20177;-68
2022/11/14 05:46:35;;;;;;;66.67;12.40;;;3.40;99.90;;;;;;4214677;28;20641;-70
2022/11/14 05:48:36;;;;;;;64.70;13.53;;;3.40;99.90;;;;;;4214060;28;20559;-68
2022/11/14 05:50:37;;;;;;;85.70;14.43;;;3.40;99.90;;;;;;4212839;28;20237;-68
2022/11/14 05:52:38;;;;;;;38.60;13.67;;;3.40;99.90;;;;;;4213667;28;20428;-68
2022/11/14 05:54:38;;;;;;;110.23;21.10;;;3.40;99.90;;;;;;4212949;28;20187;-68
2022/11/14 05:56:39;;;;;;;225.53;23.03;;;3.60;99.90;;;;;;4213247;28;20187;-68
2022/11/14 05:58:40;;;;;;;124.63;19.57;;;3.60;99.90;;;;;;4213677;28;20182;-68
2022/11/14 06:00:41;;;;;;;82.80;19.27;;;3.60;99.90;;;;;;4213356;28;20206;-68
2022/11/14 06:02:41;;;;;;;118.23;21.13;;;3.60;99.90;;;;;;4213488;28;20175;-68
2022/11/14 06:04:42;;;;;;;89.90;20.63;;;3.70;99.90;;;;;;4213686;28;20206;-67
2022/11/14 06:06:42;;;;;;;111.20;22.27;;;3.70;99.90;;;;;;4213543;28;20192;-68
2022/11/14 06:08:43;;;;;;;149.40;22.20;;;3.70;99.90;;;;;;4213430;28;20189;-68
2022/11/14 06:10:44;;;;;;;107.30;23.10;;;3.70;99.90;;;;;;4212697;28;20203;-67
2022/11/14 06:12:46;;;;;;;108.13;22.43;;;3.80;99.90;;;;;;4217702;28;20641;-68
2022/11/14 06:14:46;;;;;;;159.20;25.90;;;3.90;99.90;;;;;;4228905;28;20184;-68
2022/11/14 06:16:47;;;;;;;79.17;18.97;;;3.90;99.90;;;;;;4229848;28;20470;-68
2022/11/14 06:18:48;;;;;;;40.47;16.53;;;4.00;99.90;;;;;;4229846;28;20178;-69
2022/11/14 06:20:49;;;;;;;43.40;17.37;;;3.90;99.90;;;;;;4227849;28;20312;-68
2022/11/14 06:22:54;;;;;;;43.83;17.33;;;4.00;99.90;;;;;;4229959;28;20629;-67
2022/11/14 06:24:54;;;;;;;46.47;16.70;;;4.00;99.90;;;;;;4229960;28;20706;-68
2022/11/14 06:26:55;;;;;;;41.03;15.87;;;4.10;99.90;;;;;;4231011;28;20420;-69
2022/11/14 06:28:57;;;;;;;35.83;15.30;;;4.20;99.90;;;;;;4240140;28;20181;-68
2022/11/14 06:31:03;;;;;;;46.57;17.90;;;4.30;99.90;;;;;;4232813;28;20210;-68
2022/11/14 06:33:04;;;;;;;40.97;16.97;;;4.40;99.90;;;;;;4229532;28;20428;-68
2022/11/14 06:35:07;;;;;;;37.37;16.67;;;4.50;99.90;;;;;;4229839;28;20439;-67
2022/11/14 06:37:07;;;;;;;38.90;17.30;;;4.50;99.90;;;;;;4229758;28;20292;-68
2022/11/14 06:39:08;;;;;;;31.27;14.60;;;4.60;99.90;;;;;;4229684;28;20469;-68
2022/11/14 06:41:18;;;;;;;33.27;15.83;;;4.70;99.90;;;;;;4229307;28;20277;-66
2022/11/14 06:43:19;;;;;;;36.23;16.50;;;4.80;99.90;;;;;;4229623;28;20178;-65
2022/11/14 06:45:19;;;;;;;36.87;15.20;;;4.90;99.90;;;;;;4229600;28;20458;-66
2022/11/14 06:47:20;;;;;;;32.63;15.60;;;5.00;99.90;;;;;;4229869;28;20559;-67
2022/11/14 06:49:23;;;;;;;35.80;16.27;;;5.00;99.90;;;;;;4229774;28;20186;-66
2022/11/14 06:51:24;;;;;;;32.37;15.50;;;5.10;99.90;;;;;;4227652;28;20188;-67
2022/11/14 06:53:28;;;;;;;32.73;15.97;;;5.10;99.90;;;;;;4229530;28;20507;-67
2022/11/14 06:55:28;;;;;;;33.47;15.27;;;5.20;99.90;;;;;;4229625;28;20613;-67
2022/11/14 06:57:29;;;;;;;31.47;16.60;;;5.30;99.90;;;;;;4228221;28;20468;-67
2022/11/14 06:59:30;;;;;;;28.93;15.33;;;5.20;99.90;;;;;;4229373;28;20202;-69
2022/11/14 07:01:30;;;;;;;29.67;14.87;;;5.30;99.90;;;;;;4228952;28;20196;-67
2022/11/14 07:03:32;;;;;;;27.60;15.13;;;5.30;99.90;;;;;;4229454;28;20227;-66
2022/11/14 07:05:33;;;;;;;28.50;14.10;;;5.40;99.90;;;;;;4228226;28;20185;-67
2022/11/14 07:07:34;;;;;;;27.07;14.07;;;5.50;99.90;;;;;;4228818;28;20452;-67
2022/11/14 07:09:34;;;;;;;21.47;12.03;;;5.50;99.90;;;;;;4229361;28;20186;-67
2022/11/14 07:11:36;;;;;;;24.30;13.63;;;5.60;99.90;;;;;;4227629;28;20818;-67
2022/11/14 07:13:37;;;;;;;25.27;13.13;;;5.60;99.90;;;;;;4228178;28;20332;-69
2022/11/14 07:15:38;;;;;;;25.67;13.53;;;5.70;99.90;;;;;;4229135;28;20906;-67
2022/11/14 07:17:39;;;;;;;23.77;12.77;;;5.80;99.90;;;;;;4229003;28;20584;-68
2022/11/14 07:19:39;;;;;;;23.50;12.90;;;5.80;99.90;;;;;;4233018;27;20182;-69
2022/11/14 07:21:40;;;;;;;24.73;12.77;;;5.90;99.90;;;;;;4245360;27;20177;-66
2022/11/14 07:23:41;;;;;;;18.77;11.37;;;5.90;99.90;;;;;;4245959;27;20193;-67
2022/11/14 07:25:42;;;;;;;26.33;13.57;;;6.00;99.90;;;;;;4245945;27;20213;-66
2022/11/14 07:27:42;;;;;;;20.83;11.63;;;5.90;99.90;;;;;;4246098;27;20268;-66
2022/11/14 07:29:43;;;;;;;20.00;11.60;;;6.00;99.90;;;;;;4246115;27;20197;-67
2022/11/14 07:31:44;;;;;;;16.63;9.97;;;6.00;99.90;;;;;;4245507;27;20189;-67
2022/11/14 07:33:45;;;;;;;17.37;9.90;;;6.00;99.90;;;;;;4246019;27;20190;-67
2022/11/14 07:35:46;;;;;;;18.87;10.90;;;6.00;99.90;;;;;;4244621;27;20186;-67
2022/11/14 07:37:47;;;;;;;16.63;10.00;;;6.10;99.90;;;;;;4244584;27;20478;-67
2022/11/14 07:39:48;;;;;;;15.27;9.63;;;6.10;99.90;;;;;;4244895;27;20250;-67
2022/11/14 07:41:48;;;;;;;14.90;9.17;;;6.20;99.90;;;;;;4245538;27;20466;-66
2022/11/14 07:43:49;;;;;;;15.57;8.63;;;6.20;99.90;;;;;;4227894;27;20182;-67
2022/11/14 07:45:50;;;;;;;14.20;8.77;;;6.20;99.90;;;;;;4228757;28;20198;-67
2022/11/14 07:47:58;;;;;;;11.90;6.80;;;6.20;99.90;;;;;;4244693;28;20185;-66
2022/11/14 07:49:59;;;;;;;11.87;7.90;;;6.30;99.90;;;;;;4210618;28;20202;-67
2022/11/14 07:51:59;;;;;;;10.57;7.20;;;6.30;99.90;;;;;;4226788;28;20431;-67
2022/11/14 07:54:00;;;;;;;13.47;8.27;;;6.30;99.90;;;;;;4228887;28;20183;-68
2022/11/14 07:56:04;;;;;;;10.77;6.50;;;6.40;99.90;;;;;;4244456;28;20181;-67
2022/11/14 07:58:04;;;;;;;10.73;6.43;;;6.30;99.90;;;;;;4244443;28;20747;-66
2022/11/14 08:00:06;;;;;;;12.43;6.90;;;6.40;99.90;;;;;;4228905;28;20442;-66
2022/11/14 08:02:13;;;;;;;14.97;8.30;;;6.40;99.90;;;;;;4243812;28;20652;-66
2022/11/14 08:04:13;;;;;;;10.33;6.87;;;6.40;99.90;;;;;;4228682;28;20431;-67
2022/11/14 08:06:15;;;;;;;12.20;7.27;;;6.40;99.90;;;;;;4228640;28;20182;-66
2022/11/14 08:08:16;;;;;;;6.97;4.23;;;6.40;99.90;;;;;;4228602;28;20618;-67
2022/11/14 08:10:18;;;;;;;5.60;4.03;;;6.50;99.90;;;;;;4243655;28;20454;-66
2022/11/14 08:12:19;;;;;;;5.57;4.00;;;6.50;99.90;;;;;;4228660;28;20603;-67
2022/11/14 08:14:19;;;;;;;6.20;3.90;;;6.50;99.90;;;;;;4228409;28;20188;-66
2022/11/14 08:16:20;;;;;;;8.47;4.90;;;6.50;99.90;;;;;;4228466;28;20212;-67
2022/11/14 08:18:21;;;;;;;8.63;4.83;;;6.50;99.90;;;;;;4229769;28;20202;-68
2022/11/14 08:20:21;;;;;;;6.40;4.20;;;6.60;99.90;;;;;;4231618;27;20230;-67
2022/11/14 08:22:22;;;;;;;5.80;3.80;;;6.70;99.90;;;;;;4230496;28;20214;-68
2022/11/14 08:24:23;;;;;;;4.67;3.60;;;6.60;99.90;;;;;;4231921;28;20225;-69
2022/11/14 08:26:23;;;;;;;6.97;4.23;;;6.60;99.90;;;;;;4231650;28;20235;-67
2022/11/14 08:28:24;;;;;;;6.10;3.80;;;6.70;99.90;;;;;;4233448;28;20205;-68
2022/11/14 08:30:25;;;;;;;6.73;4.53;;;6.60;99.90;;;;;;4239268;28;20202;-68
2022/11/14 08:32:26;;;;;;;5.30;3.47;;;6.60;99.90;;;;;;4234507;28;20174;-68
2022/11/14 08:34:28;;;;;;;5.70;3.57;;;6.60;99.90;;;;;;4232355;28;20235;-68
2022/11/14 08:36:28;;;;;;;5.53;3.80;;;6.70;99.90;;;;;;4231901;28;20186;-67
2022/11/14 08:38:31;;;;;;;5.23;3.30;;;6.70;99.90;;;;;;4231745;28;20245;-68
2022/11/14 08:40:31;;;;;;;7.47;3.87;;;6.80;99.90;;;;;;4231349;28;20212;-68
2022/11/14 08:42:32;;;;;;;7.20;4.13;;;6.70;99.90;;;;;;4231682;28;20790;-68
2022/11/14 08:44:33;;;;;;;7.07;3.97;;;6.70;99.90;;;;;;4231617;28;20194;-68
2022/11/14 08:46:34;;;;;;;6.70;3.50;;;6.70;99.90;;;;;;4231845;28;20542;-67
2022/11/14 08:48:34;;;;;;;5.60;3.40;;;6.70;99.90;;;;;;4231551;28;20281;-68
2022/11/14 08:50:35;;;;;;;6.83;3.83;;;6.70;99.90;;;;;;4230913;28;20232;-68
2022/11/14 08:52:36;;;;;;;5.50;3.60;;;6.70;99.90;;;;;;4231557;28;20546;-68
2022/11/14 08:54:36;;;;;;;5.33;3.70;;;6.70;99.90;;;;;;4231302;28;20594;-67
2022/11/14 08:56:37;;;;;;;6.77;4.20;;;6.80;99.90;;;;;;4231350;28;20240;-68
2022/11/14 08:58:38;;;;;;;5.63;4.53;;;6.80;99.90;;;;;;4231285;28;20178;-68
2022/11/14 09:00:38;;;;;;;7.03;4.03;;;6.80;99.90;;;;;;4230935;28;20273;-67
2022/11/14 09:02:40;;;;;;;5.27;3.50;;;6.80;99.90;;;;;;4231444;28;20213;-68
2022/11/14 09:04:41;;;;;;;5.20;3.60;;;6.70;99.90;;;;;;4230156;28;20265;-68
2022/11/14 09:06:41;;;;;;;5.57;3.90;;;6.70;99.90;;;;;;4231395;28;20202;-68
2022/11/14 09:08:42;;;;;;;6.53;3.90;;;6.80;99.90;;;;;;4231347;28;20189;-68
2022/11/14 09:10:43;;;;;;;3.63;2.97;;;6.80;99.90;;;;;;4230527;28;20198;-68
2022/11/14 09:12:44;;;;;;;4.40;3.20;;;6.70;99.90;;;;;;4231269;28;20174;-67
2022/11/14 09:14:45;;;;;;;4.97;3.40;;;6.80;99.90;;;;;;4231046;28;20182;-68
2022/11/14 09:16:48;;;;;;;4.70;3.63;;;6.80;99.90;;;;;;4231165;28;20180;-68
2022/11/14 09:18:49;;;;;;;5.53;3.80;;;6.80;99.90;;;;;;4231238;28;20206;-68
2022/11/14 09:20:50;;;;;;;4.50;3.20;;;6.90;99.90;;;;;;4230392;28;20260;-68
2022/11/14 09:22:52;;;;;;;4.37;3.30;;;6.90;99.90;;;;;;4230930;28;20188;-67
2022/11/14 09:24:53;;;;;;;4.30;2.87;;;6.80;99.90;;;;;;4230824;28;20274;-68
2022/11/14 09:26:53;;;;;;;3.43;3.10;;;6.80;99.90;;;;;;4230766;28;20185;-68
2022/11/14 09:28:55;;;;;;;5.20;2.90;;;6.80;99.90;;;;;;4229910;28;20297;-68
2022/11/14 09:31:05;;;;;;;5.37;2.93;;;6.80;99.90;;;;;;4230155;28;20224;-68
2022/11/14 09:33:06;;;;;;;4.27;2.60;;;6.90;99.90;;;;;;4231268;28;20874;-68
2022/11/14 09:35:07;;;;;;;3.90;2.67;;;6.90;99.90;;;;;;4230783;28;20483;-67
2022/11/14 09:37:07;;;;;;;9.70;6.27;;;6.90;99.90;;;;;;4230460;28;20210;-68
2022/11/14 09:39:08;;;;;;;5.87;3.90;;;6.90;99.90;;;;;;4229255;28;20197;-67
2022/11/14 09:41:28;;;;;;;6.17;5.10;;;6.90;99.90;;;;;;4230061;28;20690;-67
2022/11/14 09:44:04;;;;;;;4.27;3.50;;;7.00;99.90;;;;;;4229382;28;20221;-68
2022/11/14 09:46:25;;;;;;;3.30;3.00;;;6.90;99.90;;;;;;4222282;28;20171;-68
2022/11/14 09:48:28;;;;;;;2.80;2.20;;;7.00;99.90;;;;;;4212441;28;20958;-67
2022/11/14 09:50:37;;;;;;;6.20;3.70;;;7.00;99.90;;;;;;4211695;28;20552;-67
2022/11/14 09:52:46;;;;;;;3.77;2.77;;;7.00;99.90;;;;;;4212380;28;20180;-68
2022/11/14 09:54:55;;;;;;;5.20;3.30;;;7.00;99.90;;;;;;4212361;28;20709;-68
2022/11/14 09:56:56;;;;;;;12.30;5.13;;;7.00;99.90;;;;;;4213339;28;20270;-67
2022/11/14 09:58:56;;;;;;;4.97;3.40;;;7.10;99.90;;;;;;4213739;28;20604;-69
2022/11/14 10:01:01;;;;;;;9.60;5.00;;;7.10;99.90;;;;;;4213068;28;20224;-69
2022/11/14 10:03:32;;;;;;;5.50;3.20;;;7.00;99.90;;;;;;4212042;28;20206;-68
2022/11/14 10:06:21;;;;;;;4.27;2.63;;;6.90;99.90;;;;;;4213233;28;20218;-68
2022/11/14 10:09:02;;;;;;;4.57;3.30;;;6.90;99.90;;;;;;4221396;28;20194;-69
2022/11/14 10:11:28;;;;;;;5.30;3.50;;;6.90;99.90;;;;;;4229789;28;20202;-68
2022/11/14 10:14:10;;;;;;;5.57;4.57;;;6.90;99.90;;;;;;4230055;28;20450;-68
2022/11/14 10:16:56;;;;;;;5.17;3.10;;;7.00;99.90;;;;;;4230021;28;20625;-69
2022/11/14 10:19:24;;;;;;;3.90;2.90;;;7.00;99.90;;;;;;4221459;28;20218;-69
2022/11/14 10:21:40;;;;;;;3.37;2.70;;;6.90;99.90;;;;;;4229329;28;20911;-69
2022/11/14 10:24:24;;;;;;;4.70;3.20;;;6.90;99.90;;;;;;4228499;28;20668;-68
2022/11/14 10:26:37;;;;;;;7.13;5.00;;;6.90;99.90;;;;;;4229293;28;20235;-69
2022/11/14 10:29:35;;;;;;;7.57;4.67;;;6.90;99.90;;;;;;4228489;28;20434;-68
2022/11/14 10:32:09;;;;;;;9.00;5.80;;;7.00;99.90;;;;;;4196489;28;20708;-69
2022/11/14 10:34:37;;;;;;;5.00;3.70;;;7.10;99.90;;;;;;4231098;28;20186;-69
2022/11/14 10:36:59;;;;;;;4.20;3.17;;;7.10;99.90;;;;;;4228819;28;20178;-69
2022/11/14 10:39:20;;;;;;;6.53;3.73;;;7.10;99.90;;;;;;4229921;28;20221;-69
2022/11/14 10:41:24;;;;;;;3.10;2.80;;;7.20;99.90;;;;;;4227779;28;20262;-68